Date,TemperatureHighF,TemperatureAvgF,TemperatureLowF,DewpointHighF,DewpointAvgF,DewpointLowF,HumidityHigh,HumidityAvg,HumidityLow,PressureMaxIn,PressureMinIn,WindSpeedMaxMPH,WindSpeedAvgMPH,GustSpeedMaxMPH,PrecipitationSumIn
2013-1-1,39.7,36.3,27.0,31.7,26.6,15.7,84,68,54,29.92,29.74,20,4,20,0.00
2013-1-2,34.6,27.6,22.9,18.1,15.1,12.0,69,59,47,30.08,29.90,17,3,17,0.00
2013-1-3,33.9,28.4,23.4,20.4,17.6,16.0,76,64,51,30.09,29.97,14,3,14,0.00
2013-1-4,37.3,33.3,27.5,24.1,22.8,20.2,75,65,57,29.99,29.85,21,5,21,0.00
2013-1-5,44.4,35.5,29.8,25.2,22.9,19.8,76,61,45,30.19,29.92,20,3,20,0.00
2013-1-6,47.6,38.8,31.9,34.1,29.5,24.4,94,71,50,30.12,29.86,15,2,15,0.00
2013-1-7,47.2,38.0,28.7,32.1,27.2,22.8,86,66,44,30.29,29.96,15,2,15,0.00
2013-1-8,49.7,36.0,23.4,35.0,29.1,21.4,95,77,52,30.31,30.23,15,1,15,0.00
2013-1-9,48.9,39.5,27.5,40.2,33.9,26.0,95,81,70,30.29,30.03,16,2,16,0.00
2013-1-10,49.8,42.2,34.8,35.3,28.1,25.6,74,58,40,30.44,30.14,17,3,17,0.00
2013-1-11,45.8,40.5,33.9,45.0,35.4,25.8,98,82,67,30.43,29.98,10,1,10,0.40
2013-1-12,49.4,45.8,42.4,46.7,44.6,41.9,99,96,89,30.06,29.97,5,1,5,0.00
2013-1-13,48.7,46.1,43.7,48.1,45.7,43.3,99,98,96,30.05,29.90,5,0,5,0.02
2013-1-14,57.0,49.8,39.2,54.5,44.4,29.6,100,84,49,30.19,29.79,12,2,12,0.09
2013-1-15,39.3,37.4,34.7,36.4,31.0,27.9,93,78,66,30.24,30.09,10,1,10,0.14
2013-1-16,36.2,33.8,32.2,34.7,32.8,31.0,98,96,90,30.10,29.69,12,2,12,0.74
2013-1-17,44.3,39.2,35.7,35.1,30.8,26.2,94,72,58,29.99,29.81,17,3,17,0.00
2013-1-18,35.7,29.2,25.3,26.7,13.9,5.7,72,54,34,30.37,29.89,22,4,22,0.00
2013-1-19,51.0,39.4,25.0,30.6,25.6,13.3,78,59,42,30.30,29.83,22,4,22,0.00
2013-1-20,54.4,42.4,29.7,32.9,24.5,13.2,81,52,25,29.95,29.60,32,6,32,0.00
2013-1-21,29.7,25.6,21.9,13.5,11.6,9.2,69,55,47,29.99,29.95,10,2,10,0.00
2013-1-24,20.5,18.0,15.6,2.0,0.9,-0.2,50,47,42,30.32,30.25,19,5,19,0.00
2013-1-25,23.3,16.8,11.2,16.1,6.3,-2.0,93,65,45,30.33,29.97,13,2,13,0.00
2013-1-26,28.5,19.7,12.0,13.1,9.7,7.3,92,67,43,30.30,29.96,21,3,21,0.00
2013-1-27,35.9,25.3,15.6,15.2,12.1,8.5,74,59,38,30.43,30.30,15,2,15,0.00
2013-1-28,34.5,30.2,21.3,33.5,26.0,14.2,96,85,64,30.40,29.91,10,2,10,0.13
2013-1-29,55.7,42.3,34.2,45.4,39.5,33.2,97,91,67,30.04,29.91,13,2,13,0.00
2013-1-30,67.8,53.2,41.0,61.0,50.9,40.5,100,93,77,29.97,29.23,25,2,25,0.03
2013-1-31,62.0,44.8,28.5,60.5,32.5,11.8,97,64,38,29.71,28.93,36,10,36,1.05